Terminal Aerodrome Forecast
Issued by NWS

Home | Current Version | Previous Version | Text Only | Print | Product List | Glossary On
Versions: 1 2 3 4 5 6 7 8 9 10 11 12
967
FTUS42 KTBW 241733
TAFRSW
TAF
KRSW 241733Z 2418/2518 VRB05KT P6SM SCT040
     FM241900 09008KT P6SM VCTS BKN050CB BKN100
     FM250200 07006KT P6SM SCT050
     FM251400 09009KT P6SM SCT035=

USA.gov is the U.S. government's official web portal to all federal, state and local government web resources and services.